createdAt,value
2019-03-03T00:01:02.414Z,100711.02
2019-03-03T00:03:37.552Z,100712.48
2019-03-03T00:06:12.455Z,100703.59
2019-03-03T00:08:47.344Z,100703.89
2019-03-03T00:11:22.306Z,100704.44
2019-03-03T00:13:57.310Z,100703.38
2019-03-03T00:16:32.286Z,100695.48
2019-03-03T00:19:07.611Z,100691.34
2019-03-03T00:21:42.724Z,100695.03
2019-03-03T00:24:17.818Z,100681.83
2019-03-03T00:26:52.742Z,100667.34
2019-03-03T00:29:27.662Z,100675.45
2019-03-03T00:32:02.744Z,100669.96
2019-03-03T00:34:37.652Z,100660.30
2019-03-03T00:37:24.117Z,100658.08
2019-03-03T00:40:21.210Z,100657.50
2019-03-03T00:43:13.516Z,100653.45
2019-03-03T00:45:57.682Z,100646.66
2019-03-03T00:48:50.080Z,100640.56
2019-03-03T00:51:55.738Z,100633.17
2019-03-03T00:54:53.520Z,100633.52
2019-03-03T00:57:34.641Z,100627.22
2019-03-03T01:00:44.522Z,100620.73
2019-03-03T01:03:51.983Z,100628.78
2019-03-03T01:06:39.891Z,100610.88
2019-03-03T01:09:56.084Z,100611.30
2019-03-03T01:12:49.463Z,100612.61
2019-03-03T01:15:55.470Z,100610.34
2019-03-03T01:18:56.047Z,100596.14
2019-03-03T01:21:42.739Z,100591.67
2019-03-03T01:24:39.504Z,100585.93
2019-03-03T01:27:14.430Z,100581.76
2019-03-03T01:29:49.311Z,100588.12
2019-03-03T01:32:24.218Z,100588.31
2019-03-03T01:34:58.990Z,100576.05
2019-03-03T01:37:33.989Z,100570.77
2019-03-03T01:40:09.671Z,100567.07
2019-03-03T01:42:44.546Z,100565.61
2019-03-03T01:45:19.446Z,100574.45
2019-03-03T01:47:55.263Z,100566.29
2019-03-03T01:50:32.128Z,100572.86
2019-03-03T01:53:07.008Z,100571.78
2019-03-03T01:55:41.896Z,100564.44
2019-03-03T01:58:16.946Z,100564.20
2019-03-03T02:00:51.928Z,100565.50
2019-03-03T02:03:27.299Z,100557.88
2019-03-03T02:06:02.268Z,100554.19
2019-03-03T02:08:40.254Z,100550.05
2019-03-03T02:11:15.223Z,100546.84
2019-03-03T02:13:50.038Z,100550.20
2019-03-03T02:16:24.885Z,100546.30
2019-03-03T02:18:59.925Z,100544.66
2019-03-03T02:21:34.866Z,100537.84
2019-03-03T02:24:09.776Z,100536.05
2019-03-03T02:26:44.550Z,100527.39
2019-03-03T02:29:19.415Z,100526.57
2019-03-03T02:31:54.297Z,100522.14
2019-03-03T02:34:29.201Z,100526.00
2019-03-03T02:37:04.130Z,100515.83
2019-03-03T02:39:38.933Z,100510.86
2019-03-03T02:42:13.953Z,100519.48
2019-03-03T02:44:52.887Z,100517.38
2019-03-03T02:47:30.221Z,100510.81
2019-03-03T02:50:12.028Z,100505.04
2019-03-03T02:52:46.935Z,100502.90
2019-03-03T02:55:21.857Z,100484.56
2019-03-03T02:57:56.631Z,100482.97
2019-03-03T03:00:31.525Z,100486.33
2019-03-03T03:03:10.504Z,100477.18
2019-03-03T03:05:56.875Z,100479.61
2019-03-03T03:08:53.638Z,100474.64
2019-03-03T03:11:41.484Z,100464.70
2019-03-03T03:14:32.188Z,100463.64
2019-03-03T03:17:24.411Z,100456.83
2019-03-03T03:20:10.389Z,100450.27
2019-03-03T03:22:58.109Z,100449.73
2019-03-03T03:25:44.861Z,100439.23
2019-03-03T03:28:45.212Z,100438.70
2019-03-03T03:31:25.087Z,100429.80
2019-03-03T03:34:21.733Z,100430.82
2019-03-03T03:37:04.283Z,100422.45
2019-03-03T03:39:43.927Z,100420.89
2019-03-03T03:42:24.435Z,100415.67
2019-03-03T03:45:21.079Z,100408.85
2019-03-03T03:48:26.596Z,100408.56
2019-03-03T03:51:11.235Z,100402.19
2019-03-03T03:54:14.075Z,100401.97
2019-03-03T03:56:54.377Z,100401.12
2019-03-03T03:59:51.149Z,100389.03
2019-03-03T04:02:44.756Z,100393.50
2019-03-03T04:05:36.999Z,100388.25
2019-03-03T04:08:26.373Z,100379.00
2019-03-03T04:11:15.531Z,100385.31
2019-03-03T04:14:03.477Z,100386.37
2019-03-03T04:17:03.547Z,100378.78
2019-03-03T04:19:50.761Z,100373.74
2019-03-03T04:22:38.837Z,100364.48
2019-03-03T04:25:38.917Z,100361.30
2019-03-03T04:28:21.011Z,100370.16
2019-03-03T04:31:14.768Z,100358.84
2019-03-03T04:33:58.993Z,100353.51
2019-03-03T04:36:47.716Z,100362.36
2019-03-03T04:39:27.936Z,100360.72
2019-03-03T04:42:24.487Z,100345.47
2019-03-03T04:45:18.187Z,100357.77
2019-03-03T04:48:21.113Z,100361.17
2019-03-03T04:51:10.960Z,100363.45
2019-03-03T04:54:10.807Z,100355.58
2019-03-03T04:57:05.253Z,100350.59
2019-03-03T04:59:58.364Z,100350.29
2019-03-03T05:02:56.617Z,100353.69
2019-03-03T05:09:40.919Z,100348.69
2019-03-03T05:12:42.535Z,100343.97
2019-03-03T05:15:56.663Z,100338.73
2019-03-03T05:19:02.331Z,100339.27
2019-03-03T05:21:37.096Z,100333.30
2019-03-03T05:24:12.972Z,100346.93
2019-03-03T05:26:54.939Z,100341.94
2019-03-03T05:29:30.516Z,100328.29
2019-03-03T05:32:05.478Z,100337.18
2019-03-03T05:34:40.381Z,100332.66
2019-03-03T05:37:15.127Z,100332.66
2019-03-03T05:39:50.018Z,100326.89
2019-03-03T05:42:24.781Z,100321.94
2019-03-03T05:44:59.573Z,100325.58
2019-03-03T05:47:34.502Z,100318.73
2019-03-03T05:50:09.344Z,100317.13
2019-03-03T05:52:44.211Z,100309.51
2019-03-03T05:55:19.910Z,100309.27
2019-03-03T05:57:54.894Z,100313.74
2019-03-03T06:00:29.791Z,100317.42
2019-03-03T06:03:04.555Z,100320.53
2019-03-03T06:05:39.345Z,100311.41
2019-03-03T06:08:14.247Z,100318.48
2019-03-03T06:10:49.139Z,100311.36
2019-03-03T06:13:25.557Z,100319.75
2019-03-03T06:16:00.461Z,100305.09
2019-03-03T06:18:35.421Z,100301.65
2019-03-03T06:21:10.237Z,100303.73
2019-03-03T06:23:46.744Z,100310.05
2019-03-03T06:26:21.590Z,100306.13
2019-03-03T06:28:56.358Z,100300.88
2019-03-03T06:31:31.413Z,100299.31
2019-03-03T06:34:06.271Z,100307.72
2019-03-03T06:36:41.321Z,100290.45
2019-03-03T06:39:16.191Z,100298.55
2019-03-03T06:41:50.995Z,100299.08
2019-03-03T06:44:25.745Z,100302.28
2019-03-03T06:47:01.976Z,100305.92
2019-03-03T06:50:15.753Z,100302.80
2019-03-03T06:53:04.067Z,100304.66
2019-03-03T06:55:39.661Z,100299.66
2019-03-03T06:58:24.634Z,100296.55
2019-03-03T07:00:59.499Z,100305.48
2019-03-03T07:03:34.391Z,100307.08
2019-03-03T07:06:09.193Z,100301.30
2019-03-03T07:08:44.279Z,100311.02
2019-03-03T07:11:19.047Z,100302.86
2019-03-03T07:13:54.352Z,100309.20
2019-03-03T07:16:29.263Z,100306.06
2019-03-03T07:19:04.187Z,100300.61
2019-03-03T07:21:39.452Z,100307.63
2019-03-03T07:24:14.485Z,100299.76
2019-03-03T07:26:49.739Z,100304.50
2019-03-03T07:29:25.500Z,100307.16
2019-03-03T07:32:00.383Z,100300.33
2019-03-03T07:34:35.732Z,100305.03
2019-03-03T07:37:10.599Z,100314.25
2019-03-03T07:39:45.381Z,100312.41
2019-03-03T07:42:20.269Z,100323.69
2019-03-03T07:44:56.875Z,100324.50
2019-03-03T07:48:09.364Z,100320.27
2019-03-03T07:50:44.484Z,100327.91
2019-03-03T07:53:19.408Z,100328.97
2019-03-03T07:55:54.456Z,100341.83
2019-03-03T07:58:29.329Z,100329.75
2019-03-03T08:01:04.244Z,100334.78
2019-03-03T08:06:37.079Z,100334.82
2019-03-03T08:09:12.347Z,100346.22
2019-03-03T08:11:47.213Z,100347.56
2019-03-03T08:14:22.115Z,100351.55
2019-03-03T08:16:57.152Z,100348.71
2019-03-03T08:19:32.135Z,100348.27
2019-03-03T08:22:07.109Z,100347.98
2019-03-03T08:24:42.082Z,100336.70
2019-03-03T08:27:17.099Z,100330.94
2019-03-03T08:29:52.897Z,100323.34
2019-03-03T08:32:28.713Z,100332.28
2019-03-03T08:35:03.721Z,100331.78
2019-03-03T08:37:38.624Z,100347.56
2019-03-03T08:40:15.048Z,100346.25
2019-03-03T08:43:17.943Z,100346.30
2019-03-03T08:46:31.234Z,100343.67
2019-03-03T08:49:19.293Z,100345.23
2019-03-03T08:52:13.089Z,100347.84
2019-03-03T08:55:12.987Z,100343.17
2019-03-03T08:58:04.167Z,100346.58
2019-03-03T09:00:49.026Z,100348.42
2019-03-03T09:03:51.810Z,100348.98
2019-03-03T09:06:57.491Z,100351.86
2019-03-03T09:09:48.781Z,100349.48
2019-03-03T09:12:27.505Z,100355.27
2019-03-03T09:15:33.428Z,100354.12
2019-03-03T09:18:34.373Z,100364.45
2019-03-03T09:21:37.620Z,100372.53
2019-03-03T09:24:47.493Z,100365.94
2019-03-03T09:27:31.833Z,100376.55
2019-03-03T09:30:25.483Z,100376.83
2019-03-03T09:33:37.387Z,100383.34
2019-03-03T09:36:19.327Z,100384.34
2019-03-03T09:39:19.284Z,100369.13
2019-03-03T09:42:13.014Z,100383.34
2019-03-03T09:45:05.067Z,100378.63
2019-03-03T09:47:56.291Z,100379.95
2019-03-03T09:51:08.377Z,100373.80
2019-03-03T09:54:00.563Z,100381.97
2019-03-03T09:56:57.201Z,100381.47
2019-03-03T09:59:45.903Z,100383.34
2019-03-03T10:02:54.739Z,100379.09
2019-03-03T10:05:38.354Z,100377.00
2019-03-03T10:08:35.239Z,100377.56
2019-03-03T10:11:31.092Z,100370.97
2019-03-03T10:14:43.048Z,100374.91
2019-03-03T10:17:41.970Z,100377.00
2019-03-03T10:20:26.730Z,100377.05
2019-03-03T10:23:23.330Z,100374.17
2019-03-03T10:26:15.720Z,100376.55
2019-03-03T10:29:16.464Z,100380.77
2019-03-03T10:32:25.595Z,100377.05
2019-03-03T10:35:10.934Z,100376.58
2019-03-03T10:38:05.552Z,100373.14
2019-03-03T10:40:50.449Z,100369.73
2019-03-03T10:43:50.516Z,100376.27
2019-03-03T10:46:35.346Z,100366.05
2019-03-03T10:49:30.203Z,100362.64
2019-03-03T10:52:28.371Z,100368.74
2019-03-03T10:55:15.364Z,100366.69
2019-03-03T10:58:00.866Z,100362.50
2019-03-03T11:00:57.870Z,100363.81
2019-03-03T11:03:57.979Z,100365.38
2019-03-03T11:06:50.626Z,100371.72
2019-03-03T11:09:34.978Z,100369.63
2019-03-03T11:12:27.882Z,100376.22
2019-03-03T11:15:24.762Z,100371.47
2019-03-03T11:18:27.381Z,100366.75
2019-03-03T11:21:21.298Z,100367.03
2019-03-03T11:24:19.267Z,100365.13
2019-03-03T11:27:19.226Z,100365.72
2019-03-03T11:30:03.614Z,100359.65
2019-03-03T11:32:55.893Z,100362.08
2019-03-03T11:35:53.434Z,100349.66
2019-03-03T11:38:45.686Z,100361.47
2019-03-03T11:41:28.752Z,100348.17
2019-03-03T11:44:25.564Z,100344.96
2019-03-03T11:47:22.112Z,100342.84
2019-03-03T11:50:18.690Z,100341.55
2019-03-03T11:53:00.175Z,100333.39
2019-03-03T11:55:44.221Z,100331.83
2019-03-03T11:58:34.547Z,100322.84
2019-03-03T12:01:24.961Z,100321.27
2019-03-03T12:04:31.625Z,100313.95
2019-03-03T12:07:14.733Z,100311.91
2019-03-03T12:10:20.531Z,100304.33
2019-03-03T12:13:10.075Z,100300.92
2019-03-03T12:15:52.996Z,100293.58
2019-03-03T12:18:54.954Z,100290.12
2019-03-03T12:21:41.405Z,100282.80
2019-03-03T12:24:41.436Z,100277.06
2019-03-03T12:27:30.793Z,100278.38
2019-03-03T12:30:28.647Z,100276.05
2019-03-03T12:33:14.195Z,100268.70
2019-03-03T12:36:06.630Z,100269.75
2019-03-03T12:39:06.597Z,100263.69
2019-03-03T12:42:00.549Z,100255.53
2019-03-03T12:45:06.242Z,100257.66
2019-03-03T12:48:06.249Z,100246.38
2019-03-03T12:51:09.785Z,100243.97
2019-03-03T12:54:13.246Z,100237.44
2019-03-03T12:56:59.758Z,100232.44
2019-03-03T12:59:56.353Z,100231.62
2019-03-03T13:02:50.117Z,100226.13
2019-03-03T13:05:46.363Z,100222.97
2019-03-03T13:08:59.187Z,100222.41
2019-03-03T13:11:47.914Z,100219.27
2019-03-03T13:14:34.483Z,100214.53
2019-03-03T13:17:24.208Z,100206.91
2019-03-03T13:20:35.854Z,100201.12
2019-03-03T13:23:22.786Z,100191.43
2019-03-03T13:26:15.336Z,100197.72
2019-03-03T13:29:04.367Z,100189.07
2019-03-03T13:31:55.635Z,100181.95
2019-03-03T13:34:49.404Z,100174.60
2019-03-03T13:37:58.001Z,100171.19
2019-03-03T13:40:58.185Z,100168.06
2019-03-03T13:43:34.403Z,100168.58
2019-03-03T13:46:09.470Z,100153.34
2019-03-03T13:48:44.640Z,100159.37
2019-03-03T13:51:19.679Z,100150.97
2019-03-03T13:53:54.548Z,100145.17
2019-03-03T13:56:31.948Z,100155.44
2019-03-03T13:59:06.808Z,100138.90
2019-03-03T14:01:43.417Z,100133.62
2019-03-03T14:04:18.404Z,100129.16
2019-03-03T14:06:53.311Z,100130.23
2019-03-03T14:09:28.198Z,100122.60
2019-03-03T14:12:03.149Z,100127.05
2019-03-03T14:14:38.074Z,100119.98
2019-03-03T14:17:13.575Z,100109.20
2019-03-03T14:19:49.604Z,100119.44
2019-03-03T14:22:24.548Z,100110.77
2019-03-03T14:24:59.338Z,100105.78
2019-03-03T14:27:35.539Z,100102.09
2019-03-03T14:30:13.346Z,100096.56
2019-03-03T14:32:48.197Z,100098.11
2019-03-03T14:35:23.372Z,100091.83
2019-03-03T14:38:19.162Z,100098.93
2019-03-03T14:40:54.072Z,100099.17
2019-03-03T14:43:28.957Z,100090.53
2019-03-03T14:46:03.827Z,100087.11
2019-03-03T14:48:39.757Z,100088.17
2019-03-03T14:51:14.791Z,100078.70
2019-03-03T14:53:49.769Z,100080.01
2019-03-03T14:57:19.582Z,100071.84
2019-03-03T14:59:54.800Z,100070.78
2019-03-03T15:02:29.765Z,100071.32
2019-03-03T15:05:04.663Z,100061.63
2019-03-03T15:07:39.559Z,100063.45
2019-03-03T15:10:16.899Z,100066.85
2019-03-03T15:16:15.921Z,100052.14
2019-03-03T15:18:51.000Z,100049.23
2019-03-03T15:21:28.243Z,100047.92
2019-03-03T15:24:03.686Z,100038.22
2019-03-03T15:26:38.794Z,100041.89
2019-03-03T15:29:13.845Z,100045.30
2019-03-03T15:31:48.758Z,100034.77
2019-03-03T15:34:23.754Z,100038.18
2019-03-03T15:36:58.615Z,100026.11
2019-03-03T15:39:33.516Z,100025.33
2019-03-03T15:42:08.415Z,100021.14
2019-03-03T15:44:43.329Z,100011.12
2019-03-03T15:47:18.241Z,100003.25
2019-03-03T15:49:53.179Z,100004.83
2019-03-03T15:52:27.958Z,100002.18
2019-03-03T15:55:02.926Z,99996.42
2019-03-03T15:57:37.792Z,99994.87
2019-03-03T16:00:22.757Z,99999.30
2019-03-03T16:02:57.656Z,99986.70
2019-03-03T16:05:33.289Z,99975.66
2019-03-03T16:08:08.339Z,99979.34
2019-03-03T16:10:43.364Z,99985.66
2019-03-03T16:13:18.303Z,99980.96
2019-03-03T16:15:55.752Z,99970.98
2019-03-03T16:18:31.944Z,99976.50
2019-03-03T16:21:06.991Z,99982.27
2019-03-03T16:23:42.039Z,99975.72
2019-03-03T16:26:16.977Z,99975.73
2019-03-03T16:28:53.186Z,99974.42
2019-03-03T16:31:28.181Z,99966.54
2019-03-03T16:34:03.197Z,99969.71
2019-03-03T16:36:38.100Z,99957.88
2019-03-03T16:39:14.009Z,99965.47
2019-03-03T16:41:51.414Z,99956.58
2019-03-03T16:44:26.538Z,99948.15
2019-03-03T16:47:02.425Z,99950.00
2019-03-03T16:49:37.349Z,99950.01
2019-03-03T16:52:12.347Z,99944.46
2019-03-03T16:54:47.272Z,99932.68
2019-03-03T16:57:23.842Z,99933.17
2019-03-03T16:59:58.797Z,99934.77
2019-03-03T17:02:36.095Z,99934.51
2019-03-03T17:05:16.654Z,99931.09
2019-03-03T17:07:51.694Z,99933.72
2019-03-03T17:10:26.757Z,99931.59
2019-03-03T17:13:05.346Z,99922.95
2019-03-03T17:15:40.366Z,99926.36
2019-03-03T17:18:15.253Z,99916.87
2019-03-03T17:20:50.153Z,99909.53
2019-03-03T17:23:25.998Z,99917.69
2019-03-03T17:26:01.738Z,99905.34
2019-03-03T17:28:36.648Z,99902.99
2019-03-03T17:31:12.347Z,99908.00
2019-03-03T17:33:47.222Z,99910.09
2019-03-03T17:36:22.146Z,99903.27
2019-03-03T17:38:57.064Z,99903.02
2019-03-03T17:41:43.822Z,99907.23
2019-03-03T17:44:19.622Z,99898.27
2019-03-03T17:46:54.414Z,99898.80
2019-03-03T17:49:29.322Z,99888.83
2019-03-03T17:52:04.230Z,99890.17
2019-03-03T17:54:39.219Z,99889.38
2019-03-03T17:57:14.769Z,99881.73
2019-03-03T17:59:49.662Z,99884.12
2019-03-03T18:02:25.577Z,99892.28
2019-03-03T18:05:00.456Z,99870.22
2019-03-03T18:07:36.498Z,99875.72
2019-03-03T18:10:12.731Z,99875.47
2019-03-03T18:12:47.530Z,99880.47
2019-03-03T18:15:22.430Z,99879.66
2019-03-03T18:17:58.023Z,99883.33
2019-03-03T18:20:33.114Z,99875.98
2019-03-03T18:23:08.014Z,99862.09
2019-03-03T18:25:43.150Z,99880.20
2019-03-03T18:28:18.055Z,99867.09
2019-03-03T18:31:54.101Z,99883.11
2019-03-03T18:34:42.770Z,99869.98
2019-03-03T18:37:23.562Z,99870.52
2019-03-03T18:39:58.747Z,99866.56
2019-03-03T18:42:33.641Z,99865.25
2019-03-03T18:45:10.809Z,99856.59
2019-03-03T18:47:45.908Z,99860.77
2019-03-03T18:50:21.137Z,99853.44
2019-03-03T18:52:56.139Z,99850.27
2019-03-03T18:55:31.067Z,99850.30
2019-03-03T18:58:06.467Z,99850.80
2019-03-03T19:00:41.538Z,99835.35
2019-03-03T19:03:17.621Z,99843.47
2019-03-03T19:05:55.667Z,99840.59
2019-03-03T19:08:30.454Z,99841.66
2019-03-03T19:11:05.470Z,99837.94
2019-03-03T19:13:40.482Z,99837.41
2019-03-03T19:16:18.323Z,99824.57
2019-03-03T19:18:55.815Z,99826.90
2019-03-03T19:21:31.833Z,99816.94
2019-03-03T19:24:07.955Z,99825.87
2019-03-03T19:26:42.890Z,99823.77
2019-03-03T19:29:17.675Z,99816.42
2019-03-03T19:31:52.596Z,99820.39
2019-03-03T19:34:27.549Z,99822.44
2019-03-03T19:37:04.405Z,99806.94
2019-03-03T19:39:39.297Z,99801.20
2019-03-03T19:42:14.394Z,99800.67
2019-03-03T19:45:53.340Z,99783.04
2019-03-03T19:48:43.191Z,99794.30
2019-03-03T19:51:23.481Z,99789.05
2019-03-03T19:53:58.943Z,99782.97
2019-03-03T19:56:33.951Z,99778.25
2019-03-03T19:59:08.831Z,99777.23
2019-03-03T20:01:43.785Z,99765.15
2019-03-03T20:04:18.713Z,99770.16
2019-03-03T20:06:53.727Z,99764.61
2019-03-03T20:09:28.622Z,99749.09
2019-03-03T20:12:03.606Z,99743.84
2019-03-03T20:14:38.489Z,99734.38
2019-03-03T20:17:13.402Z,99725.40
2019-03-03T20:19:48.323Z,99716.45
2019-03-03T20:22:23.243Z,99721.42
2019-03-03T20:24:58.144Z,99715.40
2019-03-03T20:27:33.159Z,99712.77
2019-03-03T20:30:12.284Z,99704.92
2019-03-03T20:32:47.299Z,99700.92
2019-03-03T20:35:22.285Z,99690.17
2019-03-03T20:37:57.235Z,99682.80
2019-03-03T20:40:32.242Z,99675.73
2019-03-03T20:43:07.171Z,99670.36
2019-03-03T20:45:42.151Z,99662.25
2019-03-03T20:48:17.113Z,99655.98
2019-03-03T20:50:57.629Z,99641.80
2019-03-03T20:53:32.553Z,99650.96
2019-03-03T20:56:07.612Z,99650.19
2019-03-03T20:58:42.543Z,99641.53
2019-03-03T21:01:17.413Z,99643.89
2019-03-03T21:03:52.334Z,99641.04
2019-03-03T21:06:27.357Z,99635.31
2019-03-03T21:09:02.369Z,99623.02
2019-03-03T21:11:38.874Z,99622.18
2019-03-03T21:14:13.795Z,99609.86
2019-03-03T21:16:50.544Z,99601.36
2019-03-03T21:19:25.582Z,99603.44
2019-03-03T21:24:46.472Z,99602.94
2019-03-03T21:27:21.475Z,99602.90
2019-03-03T21:29:56.395Z,99602.90
2019-03-03T21:32:31.397Z,99602.16
2019-03-03T21:35:06.637Z,99600.16
2019-03-03T21:37:41.546Z,99595.76
2019-03-03T21:40:18.194Z,99586.09
2019-03-03T21:42:53.204Z,99582.16
2019-03-03T21:45:28.219Z,99569.80
2019-03-03T21:48:03.124Z,99562.16
2019-03-03T21:50:38.039Z,99559.30
2019-03-03T21:53:12.935Z,99556.63
2019-03-03T21:55:48.723Z,99554.47
2019-03-03T21:58:23.598Z,99546.83
2019-03-03T22:00:58.507Z,99550.72
2019-03-03T22:03:33.464Z,99542.48
2019-03-03T22:06:08.305Z,99539.81
2019-03-03T22:08:43.273Z,99528.98
2019-03-03T22:11:18.082Z,99534.27
2019-03-03T22:13:52.981Z,99537.41
2019-03-03T22:16:27.796Z,99543.75
2019-03-03T22:19:02.680Z,99551.13
2019-03-03T22:21:37.591Z,99543.80
2019-03-03T22:24:12.471Z,99549.40
2019-03-03T22:26:47.368Z,99540.30
2019-03-03T22:29:22.257Z,99533.55
2019-03-03T22:31:57.051Z,99542.47
2019-03-03T22:34:31.931Z,99519.68
2019-03-03T22:37:06.859Z,99519.98
2019-03-03T22:39:41.764Z,99528.06
2019-03-03T22:42:16.659Z,99518.64
2019-03-03T22:44:51.543Z,99511.80
2019-03-03T22:47:26.410Z,99513.84
2019-03-03T22:50:02.811Z,99509.59
2019-03-03T22:52:38.861Z,99504.34
2019-03-03T22:55:13.889Z,99501.17
2019-03-03T22:57:49.955Z,99490.94
2019-03-03T23:01:01.290Z,99483.05
2019-03-03T23:04:44.065Z,99482.06
2019-03-03T23:08:10.245Z,99472.66
2019-03-03T23:11:45.934Z,99467.08
2019-03-03T23:14:50.455Z,99440.36
2019-03-03T23:18:24.821Z,99434.48
2019-03-03T23:21:53.123Z,99433.94
2019-03-03T23:25:33.887Z,99436.56
2019-03-03T23:28:17.906Z,99428.04
2019-03-03T23:30:55.567Z,99415.45
2019-03-03T23:33:31.520Z,99401.94
2019-03-03T23:36:06.437Z,99393.72
2019-03-03T23:38:41.299Z,99374.94
2019-03-03T23:41:16.187Z,99389.38
2019-03-03T23:43:51.516Z,99372.95
2019-03-03T23:46:26.408Z,99364.58
2019-03-03T23:49:01.370Z,99362.14
2019-03-03T23:51:36.159Z,99362.08
2019-03-03T23:54:12.534Z,99354.92
2019-03-03T23:56:47.438Z,99353.09
2019-03-03T23:59:22.316Z,99352.20
